Time;durP1;ratioP1;P1;durP2;ratioP2;P2;SDS_P1;SDS_P2;PMS_P1;PMS_P2;Temp;Humidity;BMP_temperature;BMP_pressure;BME280_temperature;BME280_humidity;BME280_pressure;Samples;Min_cycle;Max_cycle;Signal;HPM_P1;HPM_P2
2023/03/25 00:01:24;;;;;;;;;;;;;;;8.65;100.00;95964.22;5027218;28;19959;-85
2023/03/25 00:03:52;;;;;;;;;;;;;;;8.61;100.00;95963.03;5026765;28;20037;-86
2023/03/25 00:06:19;;;;;;;;;;;;;;;8.57;100.00;95964.53;5057324;28;19968;-86
2023/03/25 00:08:46;;;;;;;;;;;;;;;8.50;100.00;95961.94;5043173;28;19971;-86
2023/03/25 00:11:12;;;;;;;;;;;;;;;8.44;100.00;95972.75;5024735;28;19978;-86
2023/03/25 00:13:41;;;;;;;;;;;;;;;8.44;100.00;95980.84;5061330;28;19966;-86
2023/03/25 00:16:10;;;;;;;;;;;;;;;8.49;100.00;95983.69;5068971;28;19969;-84
2023/03/25 00:18:36;;;;;;;;;;;;;;;8.43;100.00;95971.13;5069667;28;20062;-86
2023/03/25 00:21:09;;;;;;;;;;;;;;;8.32;100.00;95968.16;5067498;28;19989;-84
2023/03/25 00:23:36;;;;;;;;;;;;;;;8.17;100.00;95948.84;5065977;28;20032;-86
2023/03/25 00:26:03;;;;;;;;;;;;;;;8.13;100.00;95950.34;5079978;28;19986;-86
2023/03/25 00:28:32;;;;;;;;;;;;;;;8.14;100.00;95949.31;5061349;28;20030;-87
2023/03/25 00:30:59;;;;;;;;;;;;;;;8.15;100.00;95945.56;5066623;28;20023;-86
2023/03/25 00:33:27;;;;;;;;;;;;;;;8.16;100.00;95941.03;5064634;28;19975;-87
2023/03/25 00:35:58;;;;;;;;;;;;;;;8.15;100.00;95944.75;5072292;28;20050;-85
2023/03/25 00:38:32;;;;;;;;;;;;;;;8.06;100.00;95929.97;5100781;28;19998;-86
2023/03/25 00:41:05;;;;;;;;;;;;;;;8.03;100.00;95925.84;5066609;28;19967;-86
2023/03/25 00:43:32;;;;;;;;;;;;;;;7.94;100.00;95919.94;5081271;28;19960;-86
2023/03/25 00:45:59;;;;;;;;;;;;;;;7.87;100.00;95907.63;5071794;28;19965;-86
2023/03/25 00:48:28;;;;;;;;;;;;;;;7.90;100.00;95904.50;5072234;28;19972;-86
2023/03/25 00:50:55;;;;;;;;;;;;;;;7.94;100.00;95897.63;5067598;28;19932;-87
2023/03/25 00:53:22;;;;;;;;;;;;;;;7.95;100.00;95904.63;5100946;28;19924;-87
2023/03/25 00:55:49;;;;;;;;;;;;;;;8.03;100.00;95914.28;5077236;28;19971;-86
2023/03/25 00:58:17;;;;;;;;;;;;;;;8.04;100.00;95923.97;5085760;28;19932;-86
2023/03/25 01:00:43;;;;;;;;;;;;;;;8.05;100.00;95923.75;5065699;28;19924;-86
2023/03/25 01:03:12;;;;;;;;;;;;;;;8.02;100.00;95918.81;5065902;28;19931;-87
2023/03/25 01:05:42;;;;;;;;;;;;;;;7.94;100.00;95908.38;5069313;28;19958;-87
2023/03/25 01:08:09;;;;;;;;;;;;;;;7.93;100.00;95912.94;5062695;28;19924;-86
2023/03/25 01:10:37;;;;;;;;;;;;;;;8.01;100.00;95916.34;5069779;28;20015;-87
2023/03/25 01:13:05;;;;;;;;;;;;;;;7.95;100.00;95910.84;5082022;28;19925;-86
2023/03/25 01:15:31;;;;;;;;;;;;;;;7.87;100.00;95907.63;5078539;28;19924;-85
2023/03/25 01:17:59;;;;;;;;;;;;;;;7.84;100.00;95916.94;5081761;28;20429;-87
2023/03/25 01:20:26;;;;;;;;;;;;;;;7.88;100.00;95936.97;5061771;28;19924;-85
2023/03/25 01:22:55;;;;;;;;;;;;;;;7.86;100.00;95941.75;5068860;28;19933;-86
2023/03/25 01:25:22;;;;;;;;;;;;;;;7.84;100.00;95934.94;5070884;28;19939;-87
2023/03/25 01:27:49;;;;;;;;;;;;;;;7.90;100.00;95942.97;5070055;28;20039;-87
2023/03/25 01:30:16;;;;;;;;;;;;;;;7.86;100.00;95946.31;5072340;28;19963;-86
2023/03/25 01:32:43;;;;;;;;;;;;;;;7.78;100.00;95954.66;5069826;28;19932;-86
2023/03/25 01:35:11;;;;;;;;;;;;;;;7.75;100.00;95971.22;5090574;28;19924;-86
2023/03/25 01:37:38;;;;;;;;;;;;;;;7.73;100.00;95971.47;5068373;28;19924;-87
2023/03/25 01:40:09;;;;;;;;;;;;;;;7.79;100.00;95970.56;5068389;28;19924;-84
2023/03/25 01:42:36;;;;;;;;;;;;;;;7.90;100.00;95974.41;5090149;28;19925;-87
2023/03/25 01:45:14;;;;;;;;;;;;;;;7.95;100.00;95963.78;5090176;28;19924;-87
2023/03/25 01:47:41;;;;;;;;;;;;;;;7.99;100.00;95965.00;5083649;28;19951;-87
2023/03/25 01:50:13;;;;;;;;;;;;;;;8.08;100.00;95966.31;5073314;28;19930;-86
2023/03/25 01:52:41;;;;;;;;;;;;;;;8.16;100.00;95959.84;5087514;28;19935;-84
2023/03/25 01:55:10;;;;;;;;;;;;;;;8.22;100.00;95961.63;5068537;28;19924;-86
2023/03/25 01:57:38;;;;;;;;;;;;;;;8.35;100.00;95967.69;5086981;28;19924;-87
2023/03/25 02:00:08;;;;;;;;;;;;;;;8.33;100.00;95971.69;5085212;28;19924;-87
2023/03/25 02:02:39;;;;;;;;;;;;;;;8.37;100.00;95983.63;5068245;28;19929;-87
2023/03/25 02:05:09;;;;;;;;;;;;;;;8.42;100.00;96001.78;5059933;28;19932;-87
2023/03/25 02:07:38;;;;;;;;;;;;;;;8.40;100.00;95993.94;5099222;27;20018;-86
2023/03/25 02:10:06;;;;;;;;;;;;;;;8.50;100.00;95993.41;5071394;28;19934;-87
2023/03/25 02:12:35;;;;;;;;;;;;;;;8.53;100.00;96011.78;5067445;28;19924;-86
2023/03/25 02:15:02;;;;;;;;;;;;;;;8.57;100.00;96002.22;5082726;28;19924;-86
2023/03/25 02:17:34;;;;;;;;;;;;;;;8.60;100.00;96009.81;5069308;28;20178;-87
2023/03/25 02:20:19;;;;;;;;;;;;;;;8.59;100.00;96021.66;5105789;27;19932;-86
2023/03/25 02:22:58;;;;;;;;;;;;;;;8.61;100.00;96012.28;5066087;28;20034;-88
2023/03/25 02:25:38;;;;;;;;;;;;;;;8.61;100.00;96016.84;5048300;28;19931;-87
2023/03/25 02:28:12;;;;;;;;;;;;;;;8.56;100.00;96020.22;5073661;28;19924;-87
2023/03/25 02:30:54;;;;;;;;;;;;;;;8.49;100.00;96024.88;5064753;28;19925;-87
2023/03/25 02:33:39;;;;;;;;;;;;;;;8.46;100.00;96019.09;5075595;28;19924;-87
2023/03/25 02:36:21;;;;;;;;;;;;;;;8.35;100.00;96012.59;5065613;28;19933;-87
2023/03/25 02:38:52;;;;;;;;;;;;;;;8.34;100.00;96022.53;5104826;27;19951;-86
2023/03/25 02:41:24;;;;;;;;;;;;;;;8.32;100.00;96024.66;5084091;28;19925;-87
2023/03/25 02:43:56;;;;;;;;;;;;;;;8.36;100.00;96035.78;5073269;28;19989;-84
2023/03/25 02:46:24;;;;;;;;;;;;;;;8.35;100.00;96017.97;5097848;27;19928;-87
2023/03/25 02:48:53;;;;;;;;;;;;;;;8.33;100.00;96009.34;5083086;28;19935;-87
2023/03/25 02:51:26;;;;;;;;;;;;;;;8.13;100.00;95998.75;5099621;28;20021;-88
2023/03/25 02:53:56;;;;;;;;;;;;;;;8.01;100.00;96008.59;5082387;28;20008;-87
2023/03/25 02:56:25;;;;;;;;;;;;;;;8.01;100.00;95981.69;5081338;28;19924;-87
2023/03/25 02:58:54;;;;;;;;;;;;;;;7.88;100.00;95971.94;5064753;28;19947;-85
2023/03/25 03:01:21;;;;;;;;;;;;;;;7.80;100.00;95974.06;5097391;28;19925;-87
2023/03/25 03:03:48;;;;;;;;;;;;;;;7.76;100.00;95994.38;5085831;28;19924;-86
2023/03/25 03:06:17;;;;;;;;;;;;;;;7.78;100.00;96011.09;5067265;28;20090;-86
2023/03/25 03:08:52;;;;;;;;;;;;;;;7.75;100.00;95998.09;5085074;28;19924;-86
2023/03/25 03:11:23;;;;;;;;;;;;;;;7.69;100.00;95981.00;5070793;28;19931;-86
2023/03/25 03:14:01;;;;;;;;;;;;;;;7.64;100.00;95982.72;5086620;28;20070;-84
2023/03/25 03:16:32;;;;;;;;;;;;;;;7.64;100.00;95985.41;5100944;27;19928;-86
2023/03/25 03:19:03;;;;;;;;;;;;;;;7.69;100.00;95972.94;5101828;27;19931;-86
2023/03/25 03:21:37;;;;;;;;;;;;;;;7.67;100.00;95955.38;5068224;28;20023;-87
2023/03/25 03:24:10;;;;;;;;;;;;;;;7.57;100.00;95954.00;5072358;28;19924;-88
2023/03/25 03:26:42;;;;;;;;;;;;;;;7.51;100.00;95943.34;5082387;28;19931;-87
2023/03/25 03:29:12;;;;;;;;;;;;;;;7.48;100.00;95976.84;5067503;28;19924;-87
2023/03/25 03:31:41;;;;;;;;;;;;;;;7.46;100.00;95997.75;5079392;28;19931;-86
2023/03/25 03:34:13;;;;;;;;;;;;;;;7.49;100.00;95985.72;5076721;28;19947;-86
2023/03/25 03:36:44;;;;;;;;;;;;;;;7.42;100.00;95984.94;5102268;27;19929;-84
2023/03/25 03:39:15;;;;;;;;;;;;;;;7.45;100.00;95974.59;5085013;28;19959;-84
2023/03/25 03:41:45;;;;;;;;;;;;;;;7.40;100.00;95971.72;5099240;28;19924;-85
2023/03/25 03:44:14;;;;;;;;;;;;;;;7.39;100.00;95963.91;5082104;28;19924;-85
2023/03/25 03:46:43;;;;;;;;;;;;;;;7.45;100.00;95987.22;5085881;28;19946;-84
2023/03/25 03:49:14;;;;;;;;;;;;;;;7.52;100.00;95994.16;5063157;28;19950;-87
2023/03/25 03:51:43;;;;;;;;;;;;;;;7.46;100.00;95997.75;5066183;28;20019;-87
2023/03/25 03:54:13;;;;;;;;;;;;;;;7.43;100.00;96000.84;5079966;28;20030;-86
2023/03/25 03:56:45;;;;;;;;;;;;;;;7.44;100.00;95972.94;5064758;28;19951;-86
2023/03/25 03:59:17;;;;;;;;;;;;;;;7.43;100.00;95965.09;5110659;27;19932;-86
2023/03/25 04:01:45;;;;;;;;;;;;;;;7.44;100.00;96005.19;5063002;28;19924;-86
2023/03/25 04:04:14;;;;;;;;;;;;;;;7.49;100.00;96024.16;5067532;28;19931;-87
2023/03/25 04:06:45;;;;;;;;;;;;;;;7.51;100.00;96008.63;5081796;28;19935;-87
2023/03/25 04:09:17;;;;;;;;;;;;;;;7.39;100.00;95996.97;5066173;28;19924;-87
2023/03/25 04:11:47;;;;;;;;;;;;;;;7.37;100.00;96007.09;5065059;28;20049;-87
2023/03/25 04:14:15;;;;;;;;;;;;;;;7.43;100.00;95998.16;5063556;28;19925;-86
2023/03/25 04:16:44;;;;;;;;;;;;;;;7.48;100.00;95989.47;5066090;28;19929;-85
2023/03/25 04:19:12;;;;;;;;;;;;;;;7.54;100.00;95983.22;5080324;28;19979;-86
2023/03/25 04:21:40;;;;;;;;;;;;;;;7.56;100.00;95987.31;5044517;28;19936;-86
2023/03/25 04:24:07;;;;;;;;;;;;;;;7.59;100.00;95996.78;5044228;28;19948;-87
2023/03/25 04:26:37;;;;;;;;;;;;;;;7.59;100.00;95984.19;5048958;28;19929;-87
2023/03/25 04:29:04;;;;;;;;;;;;;;;7.58;100.00;95974.47;5044863;28;19924;-87
2023/03/25 04:31:32;;;;;;;;;;;;;;;7.60;100.00;95975.09;5079482;28;20279;-85
2023/03/25 04:33:59;;;;;;;;;;;;;;;7.60;100.00;95988.50;5050828;28;19944;-87
2023/03/25 04:36:27;;;;;;;;;;;;;;;7.59;100.00;95996.78;5063926;28;19925;-86
2023/03/25 04:38:54;;;;;;;;;;;;;;;7.53;100.00;96008.41;5048323;28;20027;-87
2023/03/25 04:41:21;;;;;;;;;;;;;;;7.51;100.00;96016.69;5056751;28;19925;-83
2023/03/25 04:43:48;;;;;;;;;;;;;;;7.50;100.00;96028.47;5083691;28;20176;-87
2023/03/25 04:46:16;;;;;;;;;;;;;;;7.49;100.00;96037.56;5045830;28;19924;-87
2023/03/25 04:48:46;;;;;;;;;;;;;;;7.47;100.00;96053.13;5048699;28;19928;-86
2023/03/25 04:51:14;;;;;;;;;;;;;;;7.55;100.00;96055.53;5046235;28;19982;-86
2023/03/25 04:53:41;;;;;;;;;;;;;;;7.54;100.00;96047.69;5041289;28;19952;-86
2023/03/25 04:56:14;;;;;;;;;;;;;;;7.52;100.00;96045.22;5050408;28;19924;-87
2023/03/25 04:58:41;;;;;;;;;;;;;;;7.48;100.00;96038.66;5073949;28;19924;-86
2023/03/25 05:01:15;;;;;;;;;;;;;;;7.50;100.00;96031.16;5064211;28;20216;-87
2023/03/25 05:03:41;;;;;;;;;;;;;;;7.55;100.00;96046.66;5058709;28;19986;-86
2023/03/25 05:06:10;;;;;;;;;;;;;;;7.57;100.00;96060.69;5050214;28;19925;-87
2023/03/25 05:08:36;;;;;;;;;;;;;;;7.57;100.00;96058.81;5056763;28;19968;-87
2023/03/25 05:11:03;;;;;;;;;;;;;;;7.61;100.00;96053.81;5082071;28;19925;-86
2023/03/25 05:13:30;;;;;;;;;;;;;;;7.61;100.00;96064.56;5056350;28;19924;-86
2023/03/25 05:15:57;;;;;;;;;;;;;;;7.57;100.00;96066.88;5035574;28;19933;-86
2023/03/25 05:18:24;;;;;;;;;;;;;;;7.55;100.00;96070.81;5030344;28;19960;-86
2023/03/25 05:20:50;;;;;;;;;;;;;;;7.52;100.00;96073.94;5049986;28;19956;-85
2023/03/25 05:23:20;;;;;;;;;;;;;;;7.55;100.00;96070.81;5064703;28;19929;-85
2023/03/25 05:25:49;;;;;;;;;;;;;;;7.46;100.00;96067.59;5021600;28;19953;-85
2023/03/25 05:28:16;;;;;;;;;;;;;;;7.34;100.00;96085.41;5055189;28;20025;-84
2023/03/25 05:30:45;;;;;;;;;;;;;;;7.32;100.00;96075.94;5042235;28;19933;-85
2023/03/25 05:33:14;;;;;;;;;;;;;;;7.30;100.00;96080.72;5032941;28;19991;-85
2023/03/25 05:35:41;;;;;;;;;;;;;;;7.29;100.00;96085.25;5065848;28;19932;-85
2023/03/25 05:38:08;;;;;;;;;;;;;;;7.28;100.00;96086.28;5034988;28;19931;-86
2023/03/25 05:40:36;;;;;;;;;;;;;;;7.21;100.00;96093.56;5031876;28;19925;-86
2023/03/25 05:43:05;;;;;;;;;;;;;;;7.20;100.00;96094.59;5027738;28;19925;-85
2023/03/25 05:45:34;;;;;;;;;;;;;;;7.23;100.00;96104.91;5063110;28;19929;-84
2023/03/25 05:48:01;;;;;;;;;;;;;;;7.19;100.00;96103.69;5052093;28;20010;-85
2023/03/25 05:50:28;;;;;;;;;;;;;;;7.16;100.00;96093.38;5043829;28;19925;-86
2023/03/25 05:52:56;;;;;;;;;;;;;;;7.17;100.00;96101.22;5024724;28;19932;-85
2023/03/25 05:55:24;;;;;;;;;;;;;;;7.21;100.00;96097.09;5027112;28;19925;-86
2023/03/25 05:57:52;;;;;;;;;;;;;;;7.19;100.00;96092.97;5046050;28;19925;-86
2023/03/25 06:00:20;;;;;;;;;;;;;;;7.13;100.00;96085.78;5067836;28;19925;-85
2023/03/25 06:02:47;;;;;;;;;;;;;;;7.07;100.00;96074.00;5047244;28;19979;-84
2023/03/25 06:05:15;;;;;;;;;;;;;;;7.04;100.00;96062.91;5034975;28;19932;-86
2023/03/25 06:07:42;;;;;;;;;;;;;;;7.05;100.00;96054.63;5030551;28;19929;-85
2023/03/25 06:10:10;;;;;;;;;;;;;;;7.03;100.00;96055.88;5061833;28;19931;-85
2023/03/25 06:12:37;;;;;;;;;;;;;;;6.98;100.00;96050.31;5030567;28;19925;-85
2023/03/25 06:15:06;;;;;;;;;;;;;;;7.02;100.00;96046.19;5063569;28;19928;-85
2023/03/25 06:17:33;;;;;;;;;;;;;;;6.93;100.00;96031.34;5071966;28;19924;-85
2023/03/25 06:20:05;;;;;;;;;;;;;;;6.90;100.00;96045.19;5059409;28;19925;-85
2023/03/25 06:22:32;;;;;;;;;;;;;;;6.95;100.00;96042.72;5081340;28;19931;-85
2023/03/25 06:25:00;;;;;;;;;;;;;;;7.02;100.00;96051.53;5065377;28;19928;-85
2023/03/25 06:27:27;;;;;;;;;;;;;;;7.07;100.00;96049.03;5065270;28;19928;-85
2023/03/25 06:29:54;;;;;;;;;;;;;;;7.06;100.00;96050.88;5066661;28;19974;-85
2023/03/25 06:32:24;;;;;;;;;;;;;;;6.99;100.00;96063.53;5077524;28;19931;-84
2023/03/25 06:34:51;;;;;;;;;;;;;;;7.04;100.00;96066.41;5103249;27;19925;-86
2023/03/25 06:37:18;;;;;;;;;;;;;;;7.15;100.00;96068.38;5099504;28;19929;-86
2023/03/25 06:39:48;;;;;;;;;;;;;;;7.14;100.00;96085.56;5084789;28;19925;-85
2023/03/25 06:42:19;;;;;;;;;;;;;;;7.24;100.00;96090.44;5085947;28;19925;-84
2023/03/25 06:45:01;;;;;;;;;;;;;;;7.33;100.00;96093.69;5079299;28;20041;-85
2023/03/25 06:47:43;;;;;;;;;;;;;;;7.30;100.00;96086.09;5078867;28;19925;-85
2023/03/25 06:50:10;;;;;;;;;;;;;;;7.30;100.00;96069.97;5070887;28;19967;-85
2023/03/25 06:52:37;;;;;;;;;;;;;;;7.36;100.00;96061.88;5086322;28;19928;-84
2023/03/25 06:55:04;;;;;;;;;;;;;;;7.40;100.00;96052.31;5083343;28;19939;-88
2023/03/25 06:57:31;;;;;;;;;;;;;;;7.32;100.00;96049.06;5089111;28;19935;-87
2023/03/25 06:59:58;;;;;;;;;;;;;;;7.30;100.00;96037.75;5066178;28;19947;-87
2023/03/25 07:02:26;;;;;;;;;;;;;;;7.38;100.00;96049.03;5080113;28;19932;-88
2023/03/25 07:04:54;;;;;;;;;;;;;;;7.33;100.00;96061.47;5065493;28;19939;-85
2023/03/25 07:07:21;;;;;;;;;;;;;;;7.27;100.00;96065.84;5066311;28;19994;-85
2023/03/25 07:09:50;;;;;;;;;;;;;;;7.29;100.00;96060.25;5062205;28;19931;-86
2023/03/25 07:12:17;;;;;;;;;;;;;;;7.27;100.00;96052.41;5081554;28;19924;-85
2023/03/25 07:14:45;;;;;;;;;;;;;;;7.35;100.00;96059.38;5070285;28;20210;-84
2023/03/25 07:17:12;;;;;;;;;;;;;;;7.37;100.00;96076.94;5084353;28;19928;-86
2023/03/25 07:19:39;;;;;;;;;;;;;;;7.40;100.00;96095.28;5066195;28;19925;-85
2023/03/25 07:22:07;;;;;;;;;;;;;;;7.44;100.00;96107.25;5081528;28;19935;-84
2023/03/25 07:24:34;;;;;;;;;;;;;;;7.33;100.00;96113.31;5065297;28;20015;-86
2023/03/25 07:27:01;;;;;;;;;;;;;;;7.35;100.00;96122.00;5087382;28;19928;-85
2023/03/25 07:29:30;;;;;;;;;;;;;;;7.39;100.00;96125.09;5061246;28;19925;-86
2023/03/25 07:31:56;;;;;;;;;;;;;;;7.41;100.00;96131.88;5065738;28;19940;-85
2023/03/25 07:34:23;;;;;;;;;;;;;;;7.39;100.00;96144.72;5061302;28;19931;-86
2023/03/25 07:36:50;;;;;;;;;;;;;;;7.35;100.00;96164.13;5068220;28;19925;-85
2023/03/25 07:39:18;;;;;;;;;;;;;;;7.30;100.00;96164.78;5059506;28;19933;-85
2023/03/25 07:41:46;;;;;;;;;;;;;;;7.32;100.00;96183.34;5078390;28;19924;-84
2023/03/25 07:44:41;;;;;;;;;;;;;;;7.30;100.00;96188.13;5051168;28;19939;-85
2023/03/25 07:47:09;;;;;;;;;;;;;;;7.26;100.00;96179.66;5066333;28;19974;-85
2023/03/25 07:49:35;;;;;;;;;;;;;;;7.29;100.00;96156.94;5075025;28;19939;-83
2023/03/25 07:52:02;;;;;;;;;;;;;;;7.25;100.00;96128.84;5079687;28;19947;-84
2023/03/25 07:54:30;;;;;;;;;;;;;;;7.22;100.00;96132.81;5078414;28;19933;-84
2023/03/25 07:56:57;;;;;;;;;;;;;;;7.22;100.00;96163.19;5056631;28;19989;-83
2023/03/25 07:59:24;;;;;;;;;;;;;;;7.29;100.00;96155.09;5073106;28;19967;-86
2023/03/25 08:01:51;;;;;;;;;;;;;;;7.29;100.00;96155.09;5057357;28;19925;-84
2023/03/25 08:04:18;;;;;;;;;;;;;;;7.30;100.00;96148.69;5053747;28;19932;-84
2023/03/25 08:06:44;;;;;;;;;;;;;;;7.33;100.00;96156.28;5059725;28;19994;-84
2023/03/25 08:09:11;;;;;;;;;;;;;;;7.36;100.00;96152.34;5059883;28;19924;-84
2023/03/25 08:11:39;;;;;;;;;;;;;;;7.41;100.00;96145.28;5078308;28;19982;-84
2023/03/25 08:14:06;;;;;;;;;;;;;;;7.51;100.00;96134.91;5065658;28;19925;-84
2023/03/25 08:16:33;;;;;;;;;;;;;;;7.46;100.00;96128.53;5082735;28;19978;-85
2023/03/25 08:18:59;;;;;;;;;;;;;;;7.59;100.00;96128.44;5074753;28;19933;-84
2023/03/25 08:21:26;;;;;;;;;;;;;;;7.64;100.00;96128.63;5077028;28;19925;-85
2023/03/25 08:23:57;;;;;;;;;;;;;;;7.68;100.00;96121.78;5079039;28;19933;-84
2023/03/25 08:26:24;;;;;;;;;;;;;;;7.76;100.00;96109.94;5097575;28;20018;-85
2023/03/25 08:28:56;;;;;;;;;;;;;;;7.90;100.00;96111.50;5082723;28;20057;-85
2023/03/25 08:31:23;;;;;;;;;;;;;;;8.01;100.00;96096.50;5068033;28;19981;-85
2023/03/25 08:33:50;;;;;;;;;;;;;;;8.00;100.00;96109.09;5065018;28;19933;-83
2023/03/25 08:36:18;;;;;;;;;;;;;;;7.91;100.00;96123.91;5069073;28;19931;-85
2023/03/25 08:38:45;;;;;;;;;;;;;;;7.93;100.00;96124.47;5072473;28;19931;-84
2023/03/25 08:41:12;;;;;;;;;;;;;;;8.00;100.00;96106.41;5085491;28;19939;-85
2023/03/25 08:43:39;;;;;;;;;;;;;;;8.01;100.00;96094.63;5043246;28;19963;-85
2023/03/25 08:46:08;;;;;;;;;;;;;;;7.95;100.00;96099.03;5071381;28;19925;-85
2023/03/25 08:48:35;;;;;;;;;;;;;;;8.00;100.00;96103.72;5054728;28;19999;-85
2023/03/25 08:51:01;;;;;;;;;;;;;;;7.92;100.00;96104.84;5046365;28;19936;-86
2023/03/25 08:53:28;;;;;;;;;;;;;;;7.92;100.00;96112.06;5041315;28;19925;-85
2023/03/25 08:55:55;;;;;;;;;;;;;;;7.99;100.00;96121.72;5075384;28;19928;-84
2023/03/25 08:58:22;;;;;;;;;;;;;;;8.11;100.00;96129.91;5067036;28;19991;-85
2023/03/25 09:00:54;;;;;;;;;;;;;;;8.11;100.00;96118.34;5075312;28;19929;-86
2023/03/25 09:03:23;;;;;;;;;;;;;;;8.13;100.00;96098.25;5078406;28;19928;-85
2023/03/25 09:05:49;;;;;;;;;;;;;;;8.01;100.00;96108.06;5055881;28;19924;-85
2023/03/25 09:08:16;;;;;;;;;;;;;;;8.09;100.00;96120.41;5044284;28;19925;-86
2023/03/25 09:10:43;;;;;;;;;;;;;;;8.22;100.00;96109.56;5076056;28;19976;-86
2023/03/25 09:13:10;;;;;;;;;;;;;;;8.23;100.00;96103.97;5040789;28;19929;-86
2023/03/25 09:15:37;;;;;;;;;;;;;;;8.28;100.00;96101.41;5047127;28;19972;-86
2023/03/25 09:18:04;;;;;;;;;;;;;;;8.22;100.00;96088.88;5055356;28;19963;-86
2023/03/25 09:20:32;;;;;;;;;;;;;;;8.14;100.00;96083.78;5048020;28;20052;-86
2023/03/25 09:22:59;;;;;;;;;;;;;;;8.19;100.00;96078.53;5045765;28;19933;-85
2023/03/25 09:25:27;;;;;;;;;;;;;;;8.21;100.00;96075.63;5045773;28;19929;-86
2023/03/25 09:27:53;;;;;;;;;;;;;;;8.18;100.00;96078.75;5081899;28;19932;-85
2023/03/25 09:30:20;;;;;;;;;;;;;;;8.29;100.00;96076.16;5044441;28;19932;-86
2023/03/25 09:32:47;;;;;;;;;;;;;;;8.44;100.00;96081.22;5076345;28;19931;-87
2023/03/25 09:35:14;;;;;;;;;;;;;;;8.51;100.00;96086.50;5040726;28;19932;-86
2023/03/25 09:37:43;;;;;;;;;;;;;;;8.43;100.00;96078.72;5068205;28;19941;-86
2023/03/25 09:40:12;;;;;;;;;;;;;;;8.52;100.00;96077.41;5051783;28;19943;-86
2023/03/25 09:42:44;;;;;;;;;;;;;;;8.61;100.00;96081.44;5078457;28;19970;-86
2023/03/25 09:45:17;;;;;;;;;;;;;;;8.67;100.00;96096.72;5062736;28;20023;-86
2023/03/25 09:47:50;;;;;;;;;;;;;;;8.72;100.00;96097.66;5070937;28;19975;-86
2023/03/25 09:50:17;;;;;;;;;;;;;;;8.65;100.00;96121.16;5074679;28;19956;-86
2023/03/25 09:52:51;;;;;;;;;;;;;;;8.61;100.00;96127.19;5041185;28;19925;-85
2023/03/25 09:55:24;;;;;;;;;;;;;;;8.69;100.00;96103.50;5068670;28;19929;-86
2023/03/25 09:57:55;;;;;;;;;;;;;;;8.91;100.00;96111.94;5065696;28;19972;-86
2023/03/25 10:00:23;;;;;;;;;;;;;;;9.01;100.00;96108.72;5060397;28;19982;-86
2023/03/25 10:02:53;;;;;;;;;;;;;;;9.00;100.00;96110.59;5058678;28;19929;-87
2023/03/25 10:05:25;;;;;;;;;;;;;;;8.91;100.00;96106.56;5076654;28;19924;-85
2023/03/25 10:08:01;;;;;;;;;;;;;;;8.89;100.00;96097.88;5062490;28;19925;-86
2023/03/25 10:10:32;;;;;;;;;;;;;;;8.96;100.00;96119.34;5071516;28;19932;-86
2023/03/25 10:13:06;;;;;;;;;;;;;;;9.07;100.00;96126.69;5056188;28;19929;-87
2023/03/25 10:15:37;;;;;;;;;;;;;;;9.19;100.00;96126.72;5036264;28;19925;-86
2023/03/25 10:18:11;;;;;;;;;;;;;;;9.25;100.00;96120.44;5069769;28;19929;-86
2023/03/25 10:20:42;;;;;;;;;;;;;;;9.18;100.00;96108.94;5066440;28;19925;-85
2023/03/25 10:23:15;;;;;;;;;;;;;;;9.07;100.00;96089.78;5045371;28;20171;-86
2023/03/25 10:25:45;;;;;;;;;;;;;;;9.04;100.00;96102.88;5046523;28;19925;-87
2023/03/25 10:28:17;;;;;;;;;;;;;;;9.07;100.00;96114.03;5038336;28;19925;-87
2023/03/25 10:30:46;;;;;;;;;;;;;;;9.15;100.00;96112.91;5078607;28;19936;-86
2023/03/25 10:33:16;;;;;;;;;;;;;;;9.14;100.00;96100.47;5045646;28;20604;-85
2023/03/25 10:35:46;;;;;;;;;;;;;;;9.15;100.00;96125.53;5071821;28;20019;-87
2023/03/25 10:38:17;;;;;;;;;;;;;;;9.18;100.00;96108.94;5047295;28;19925;-87
2023/03/25 10:40:48;;;;;;;;;;;;;;;9.23;100.00;96111.75;5080120;28;19925;-87
2023/03/25 10:43:18;;;;;;;;;;;;;;;9.29;100.00;96105.44;5070893;28;19925;-86
2023/03/25 10:45:47;;;;;;;;;;;;;;;9.34;100.00;96111.00;5066032;28;19933;-85
2023/03/25 10:48:16;;;;;;;;;;;;;;;9.32;100.00;96122.00;5070595;28;19932;-86
2023/03/25 10:50:43;;;;;;;;;;;;;;;9.30;100.00;96124.09;5045894;28;19925;-86
2023/03/25 10:53:19;;;;;;;;;;;;;;;9.28;100.00;96125.34;5075316;28;19925;-87
2023/03/25 10:55:51;;;;;;;;;;;;;;;9.30;100.00;96129.47;5070444;28;19925;-87
2023/03/25 10:58:19;;;;;;;;;;;;;;;9.31;100.00;96141.06;5054912;28;20185;-84
2023/03/25 11:00:45;;;;;;;;;;;;;;;9.36;100.00;96142.03;5048205;28;19931;-86
2023/03/25 11:03:16;;;;;;;;;;;;;;;9.32;100.00;96142.72;5048011;28;19929;-87
2023/03/25 11:05:44;;;;;;;;;;;;;;;9.33;100.00;96147.06;5046062;28;19928;-86
2023/03/25 11:08:11;;;;;;;;;;;;;;;9.31;100.00;96160.75;5042770;28;19979;-86
2023/03/25 11:10:39;;;;;;;;;;;;;;;9.34;100.00;96162.19;5053531;28;20011;-86
2023/03/25 11:13:11;;;;;;;;;;;;;;;9.36;100.00;96157.38;5052393;28;19996;-87
2023/03/25 11:15:40;;;;;;;;;;;;;;;9.35;100.00;96156.59;5065273;28;19936;-87
2023/03/25 11:18:11;;;;;;;;;;;;;;;9.32;100.00;96164.28;5056266;28;19925;-87
2023/03/25 11:20:39;;;;;;;;;;;;;;;9.27;100.00;96164.94;5067438;28;19925;-86
2023/03/25 11:23:07;;;;;;;;;;;;;;;9.23;100.00;96165.63;5070861;28;19932;-87
2023/03/25 11:25:38;;;;;;;;;;;;;;;9.19;100.00;96169.81;5034534;28;20019;-85
2023/03/25 11:28:11;;;;;;;;;;;;;;;9.16;100.00;96159.50;5070699;28;19932;-85
2023/03/25 11:30:38;;;;;;;;;;;;;;;9.15;100.00;96161.38;5070188;28;19952;-85
2023/03/25 11:33:06;;;;;;;;;;;;;;;9.17;100.00;96153.91;5038156;28;19935;-84
2023/03/25 11:35:36;;;;;;;;;;;;;;;9.28;100.00;96152.28;5068318;28;19933;-85
2023/03/25 11:38:13;;;;;;;;;;;;;;;9.33;100.00;96164.06;5041823;28;19940;-84
2023/03/25 11:40:49;;;;;;;;;;;;;;;9.35;100.00;96169.22;5065616;28;19963;-84
2023/03/25 11:43:20;;;;;;;;;;;;;;;9.38;100.00;96174.13;5032728;28;19931;-84
2023/03/25 11:45:47;;;;;;;;;;;;;;;9.32;100.00;96157.03;5062014;28;19925;-84
2023/03/25 11:48:16;;;;;;;;;;;;;;;9.11;100.00;96147.53;5043312;28;19939;-85
2023/03/25 11:50:46;;;;;;;;;;;;;;;9.05;100.00;96142.22;5040472;28;19971;-85
2023/03/25 11:53:16;;;;;;;;;;;;;;;9.15;100.00;96149.78;5071961;28;19932;-85
2023/03/25 11:55:45;;;;;;;;;;;;;;;9.11;100.00;96152.91;5073173;28;19947;-85
2023/03/25 11:58:16;;;;;;;;;;;;;;;9.11;100.00;96163.69;5034385;28;19929;-86
2023/03/25 12:00:47;;;;;;;;;;;;;;;9.11;100.00;96179.84;5038495;28;20025;-85
2023/03/25 12:03:18;;;;;;;;;;;;;;;9.18;100.00;96178.97;5066971;28;19936;-85
2023/03/25 12:05:56;;;;;;;;;;;;;;;9.17;100.00;96158.47;5074194;28;19928;-85
2023/03/25 12:08:24;;;;;;;;;;;;;;;9.15;100.00;96157.88;5038729;28;19925;-86
2023/03/25 12:10:53;;;;;;;;;;;;;;;9.16;100.00;96164.91;5066440;28;19925;-85
2023/03/25 12:13:26;;;;;;;;;;;;;;;9.23;100.00;96176.41;5066674;28;19935;-85
2023/03/25 12:15:57;;;;;;;;;;;;;;;9.19;100.00;96175.19;5067505;28;20019;-86
2023/03/25 12:18:34;;;;;;;;;;;;;;;9.20;100.00;96163.38;5069271;28;20316;-86
2023/03/25 12:21:06;;;;;;;;;;;;;;;9.24;100.00;96154.63;5075645;28;19928;-86
2023/03/25 12:23:39;;;;;;;;;;;;;;;9.17;100.00;96166.53;5062834;28;19987;-85
2023/03/25 12:26:09;;;;;;;;;;;;;;;9.16;100.00;96171.09;5045168;28;19967;-84
2023/03/25 12:28:47;;;;;;;;;;;;;;;9.20;100.00;96158.00;5059422;28;19937;-85
2023/03/25 12:31:23;;;;;;;;;;;;;;;9.19;100.00;96164.44;5029971;28;19925;-85
2023/03/25 12:33:55;;;;;;;;;;;;;;;9.21;100.00;96176.63;5067948;28;19939;-85
2023/03/25 12:36:32;;;;;;;;;;;;;;;9.24;100.00;96167.28;5038759;28;20035;-85
2023/03/25 12:39:07;;;;;;;;;;;;;;;9.20;100.00;96155.31;5069749;28;19948;-85
2023/03/25 12:41:37;;;;;;;;;;;;;;;9.23;100.00;96150.28;5065771;28;19956;-85
2023/03/25 12:44:07;;;;;;;;;;;;;;;9.33;100.00;96147.06;5043275;28;19960;-86
2023/03/25 12:46:48;;;;;;;;;;;;;;;9.41;100.00;96146.75;5033616;28;19940;-85
2023/03/25 12:49:22;;;;;;;;;;;;;;;9.36;100.00;96154.69;5040744;28;19999;-85
2023/03/25 12:51:53;;;;;;;;;;;;;;;9.31;100.00;96162.63;5041139;28;19971;-85
2023/03/25 12:54:27;;;;;;;;;;;;;;;9.27;100.00;96173.03;5066473;28;19936;-85
2023/03/25 12:56:57;;;;;;;;;;;;;;;9.17;100.00;96169.25;5041950;28;19992;-86
2023/03/25 12:59:41;;;;;;;;;;;;;;;9.24;100.00;96170.81;5049118;28;19925;-82